createdAt,value
2022-12-06T00:01:37.665Z,100339.09
2022-12-06T00:04:26.454Z,100345.09
2022-12-06T00:07:15.155Z,100343.56
2022-12-06T00:10:03.877Z,100345.34
2022-12-06T00:12:53.118Z,100347.03
2022-12-06T00:15:41.835Z,100332.53
2022-12-06T00:18:32.159Z,100345.47
2022-12-06T00:21:23.641Z,100336.09
2022-12-06T00:24:14.882Z,100347.25
2022-12-06T00:27:03.559Z,100344.69
2022-12-06T00:29:52.465Z,100342.13
2022-12-06T00:32:41.159Z,100335.31
2022-12-06T00:35:31.551Z,100341.34
2022-12-06T00:38:20.169Z,100330.88
2022-12-06T00:41:11.523Z,100331.66
2022-12-06T00:48:30.060Z,100335.41
2022-12-06T00:51:21.876Z,100334.78
2022-12-06T00:54:14.728Z,100340.88
2022-12-06T00:57:03.483Z,100343.56
2022-12-06T00:59:52.165Z,100345.22
2022-12-06T01:02:40.868Z,100345.34
2022-12-06T01:05:29.897Z,100345.34
2022-12-06T01:08:20.943Z,100337.00
2022-12-06T01:11:10.676Z,100350.69
2022-12-06T01:13:59.657Z,100346.47
2022-12-06T01:16:48.345Z,100348.25
2022-12-06T01:19:37.047Z,100349.03
2022-12-06T01:22:25.651Z,100355.19
2022-12-06T01:25:15.860Z,100350.81
2022-12-06T01:28:04.816Z,100355.06
2022-12-06T01:30:54.634Z,100351.72
2022-12-06T01:33:43.485Z,100348.25
2022-12-06T01:36:32.172Z,100351.84
2022-12-06T01:39:20.802Z,100346.59
2022-12-06T01:42:13.261Z,100356.97
2022-12-06T01:45:02.279Z,100350.06
2022-12-06T01:47:59.817Z,100346.59
2022-12-06T01:50:48.535Z,100342.38
2022-12-06T01:53:38.613Z,100345.13
2022-12-06T01:56:27.508Z,100339.13
2022-12-06T01:59:18.348Z,100349.50
2022-12-06T02:02:07.375Z,100345.13
2022-12-06T02:04:57.861Z,100343.47
2022-12-06T02:07:47.958Z,100344.38
2022-12-06T02:10:37.721Z,100333.22
2022-12-06T02:13:27.346Z,100332.31
2022-12-06T02:16:33.803Z,100332.63
2022-12-06T02:19:45.561Z,100330.81
2022-12-06T02:23:14.534Z,100331.72
2022-12-06T02:26:22.333Z,100325.69
2022-12-06T02:29:53.837Z,100326.44
2022-12-06T02:32:54.901Z,100334.13
2022-12-06T02:35:52.199Z,100326.44
2022-12-06T02:38:48.913Z,100324.94
2022-12-06T02:41:50.757Z,100323.25
2022-12-06T02:44:44.878Z,100320.56
2022-12-06T02:47:37.349Z,100317.25
2022-12-06T02:50:34.353Z,100319.03
2022-12-06T02:53:25.558Z,100319.03
2022-12-06T02:56:16.872Z,100314.81
2022-12-06T02:59:05.728Z,100316.47
2022-12-06T03:01:59.963Z,100317.44
2022-12-06T03:05:03.123Z,100315.66
2022-12-06T03:07:54.333Z,100317.44
2022-12-06T03:10:50.634Z,100317.44
2022-12-06T03:13:52.453Z,100320.78
2022-12-06T03:16:50.882Z,100322.56
2022-12-06T03:19:42.024Z,100320.78
2022-12-06T03:22:39.591Z,100322.56
2022-12-06T03:25:30.861Z,100315.66
2022-12-06T03:28:21.889Z,100321.69
2022-12-06T03:31:14.791Z,100323.34
2022-12-06T03:34:11.267Z,100318.34
2022-12-06T03:37:01.054Z,100320.78
2022-12-06T03:40:07.573Z,100313.91
2022-12-06T03:42:58.441Z,100319.03
2022-12-06T03:45:54.221Z,100312.88
2022-12-06T03:48:47.914Z,100309.56
2022-12-06T03:51:38.474Z,100307.00
2022-12-06T03:54:27.463Z,100311.22
2022-12-06T03:57:16.156Z,100307.00
2022-12-06T04:00:09.541Z,100305.41
2022-12-06T04:03:00.056Z,100304.56
2022-12-06T04:05:48.657Z,100308.88
2022-12-06T04:08:37.646Z,100311.56
2022-12-06T04:11:26.345Z,100307.19
2022-12-06T04:14:15.321Z,100302.06
2022-12-06T04:17:23.085Z,100310.66
2022-12-06T04:20:15.191Z,100309.75
2022-12-06T04:23:05.821Z,100304.66
2022-12-06T04:25:54.634Z,100301.19
2022-12-06T04:29:01.341Z,100300.41
2022-12-06T04:32:07.749Z,100302.06
2022-12-06T04:35:15.208Z,100305.41
2022-12-06T04:38:22.517Z,100302.00
2022-12-06T04:41:11.227Z,100301.88
2022-12-06T04:43:58.957Z,100301.09
2022-12-06T04:46:47.742Z,100299.44
2022-12-06T04:49:37.628Z,100302.84
2022-12-06T04:52:35.402Z,100301.31
2022-12-06T04:55:24.496Z,100302.06
2022-12-06T04:58:13.181Z,100305.66
2022-12-06T05:01:01.901Z,100305.66
2022-12-06T05:03:50.555Z,100304.88
2022-12-06T05:06:39.419Z,100292.97
2022-12-06T05:09:29.667Z,100296.50
2022-12-06T05:12:18.360Z,100297.41
2022-12-06T05:15:07.990Z,100296.50
2022-12-06T05:17:56.999Z,100285.38
2022-12-06T05:20:45.796Z,100297.41
2022-12-06T05:23:34.896Z,100295.63
2022-12-06T05:26:27.870Z,100300.88
2022-12-06T05:29:16.532Z,100294.06
2022-12-06T05:32:06.240Z,100294.06
2022-12-06T05:34:54.937Z,100291.50
2022-12-06T05:37:43.616Z,100294.06
2022-12-06T05:40:32.258Z,100293.19
2022-12-06T05:43:22.306Z,100295.88
2022-12-06T05:46:11.202Z,100295.88
2022-12-06T05:48:59.921Z,100281.38
2022-12-06T05:51:48.493Z,100289.84
2022-12-06T05:54:37.139Z,100286.38
2022-12-06T05:57:25.871Z,100287.16
2022-12-06T06:00:17.834Z,100291.50
2022-12-06T06:03:06.953Z,100292.28
2022-12-06T06:05:59.894Z,100294.06
2022-12-06T06:08:48.509Z,100294.06
2022-12-06T06:11:37.209Z,100288.94
2022-12-06T06:14:26.130Z,100288.94
2022-12-06T06:17:16.263Z,100295.09
2022-12-06T06:20:06.721Z,100290.75
2022-12-06T06:22:55.842Z,100285.63
2022-12-06T06:25:44.552Z,100286.38
2022-12-06T06:28:33.491Z,100288.06
2022-12-06T06:31:22.139Z,100283.81
2022-12-06T06:34:12.344Z,100289.97
2022-12-06T06:37:01.010Z,100288.31
2022-12-06T06:39:50.045Z,100286.59
2022-12-06T06:42:39.900Z,100292.63
2022-12-06T06:45:31.012Z,100294.28
2022-12-06T06:48:20.364Z,100288.31
2022-12-06T06:51:15.295Z,100289.16
2022-12-06T06:54:04.152Z,100294.28
2022-12-06T06:56:52.885Z,100295.19
2022-12-06T06:59:41.474Z,100294.28
2022-12-06T07:02:30.151Z,100297.88
2022-12-06T07:05:19.346Z,100287.50
2022-12-06T07:08:10.152Z,100288.50
2022-12-06T07:10:59.525Z,100294.53
2022-12-06T07:13:52.547Z,100291.97
2022-12-06T07:16:41.894Z,100287.75
2022-12-06T07:19:33.612Z,100298.88
2022-12-06T07:22:22.291Z,100288.50
2022-12-06T07:25:13.808Z,100297.22
2022-12-06T07:28:02.645Z,100294.53
2022-12-06T07:30:51.453Z,100298.13
2022-12-06T07:33:41.337Z,100297.31
2022-12-06T07:36:32.931Z,100293.19
2022-12-06T07:39:21.610Z,100287.19
2022-12-06T07:42:29.304Z,100295.88
2022-12-06T07:45:18.093Z,100292.28
2022-12-06T07:48:07.286Z,100292.41
2022-12-06T07:50:55.971Z,100299.34
2022-12-06T07:53:44.618Z,100296.88
2022-12-06T07:56:33.308Z,100308.00
2022-12-06T07:59:23.972Z,100309.03
2022-12-06T08:02:19.653Z,100304.78
2022-12-06T08:05:09.543Z,100302.09
2022-12-06T08:07:58.302Z,100309.03
2022-12-06T08:10:46.977Z,100309.03
2022-12-06T08:13:37.230Z,100321.06
2022-12-06T08:16:27.629Z,100314.28
2022-12-06T08:19:16.359Z,100321.06
2022-12-06T08:22:05.320Z,100319.28
2022-12-06T08:24:54.214Z,100323.50
2022-12-06T08:27:43.004Z,100328.75
2022-12-06T08:30:32.333Z,100333.00
2022-12-06T08:33:24.221Z,100327.09
2022-12-06T08:36:16.967Z,100324.63
2022-12-06T08:39:06.271Z,100323.75
2022-12-06T08:41:58.677Z,100329.88
2022-12-06T08:44:51.674Z,100316.16
2022-12-06T08:47:40.293Z,100334.22
2022-12-06T08:50:30.529Z,100330.88
2022-12-06T08:53:19.284Z,100332.56
2022-12-06T08:56:08.813Z,100337.13
2022-12-06T08:58:57.784Z,100337.13
2022-12-06T09:01:47.558Z,100335.44
2022-12-06T09:04:43.542Z,100340.69
2022-12-06T09:07:33.748Z,100336.47
2022-12-06T09:10:22.478Z,100344.28
2022-12-06T09:13:11.367Z,100349.41
2022-12-06T09:16:01.546Z,100348.59
2022-12-06T09:18:51.567Z,100342.69
2022-12-06T09:21:43.019Z,100348.72
2022-12-06T09:24:33.285Z,100341.94
2022-12-06T09:27:22.035Z,100338.59
2022-12-06T09:30:12.123Z,100347.19
2022-12-06T09:33:00.889Z,100339.56
2022-12-06T09:35:52.520Z,100346.50
2022-12-06T09:38:43.083Z,100350.84
2022-12-06T09:42:08.158Z,100348.28
2022-12-06T09:45:20.709Z,100350.84
2022-12-06T09:48:45.695Z,100348.28
2022-12-06T09:52:00.827Z,100347.50
2022-12-06T09:55:16.994Z,100346.63
2022-12-06T09:58:22.025Z,100344.94
2022-12-06T10:01:22.225Z,100343.41
2022-12-06T10:04:31.587Z,100341.81
2022-12-06T10:07:28.972Z,100341.81
2022-12-06T10:10:26.877Z,100343.59
2022-12-06T10:13:26.477Z,100336.81
2022-12-06T10:16:33.726Z,100337.81
2022-12-06T10:19:37.801Z,100341.25
2022-12-06T10:22:41.437Z,100332.78
2022-12-06T10:25:41.344Z,100331.88
2022-12-06T10:28:41.695Z,100329.31
2022-12-06T10:31:40.290Z,100324.19
2022-12-06T10:34:54.175Z,100319.75
2022-12-06T10:37:57.176Z,100328.41
2022-12-06T10:40:57.124Z,100319.06
2022-12-06T10:43:55.385Z,100321.75
2022-12-06T10:47:06.988Z,100312.38
2022-12-06T10:50:03.541Z,100314.75
2022-12-06T10:53:02.009Z,100317.38
2022-12-06T10:55:57.598Z,100315.72
2022-12-06T10:58:54.770Z,100309.69
2022-12-06T11:01:45.924Z,100306.34
2022-12-06T11:04:38.025Z,100305.59
2022-12-06T11:07:35.382Z,100309.94
2022-12-06T11:10:30.618Z,100304.81
2022-12-06T11:13:24.261Z,100297.88
2022-12-06T11:16:19.790Z,100294.53
2022-12-06T11:19:24.774Z,100296.41
2022-12-06T11:22:28.279Z,100287.94
2022-12-06T11:25:25.492Z,100298.34
2022-12-06T11:28:32.856Z,100293.53
2022-12-06T11:31:28.283Z,100283.38
2022-12-06T11:34:23.584Z,100286.72
2022-12-06T11:37:17.871Z,100280.94
2022-12-06T11:40:20.450Z,100282.16
2022-12-06T11:43:16.073Z,100278.00
2022-12-06T11:46:07.316Z,100279.00
2022-12-06T11:49:05.476Z,100277.53
2022-12-06T11:51:55.189Z,100271.75
2022-12-06T11:54:49.507Z,100277.09
2022-12-06T11:57:45.952Z,100269.50
2022-12-06T12:00:35.334Z,100274.88
2022-12-06T12:03:29.867Z,100272.63
2022-12-06T12:06:24.196Z,100270.13
2022-12-06T12:09:29.155Z,100272.81
2022-12-06T12:12:21.446Z,100265.00
2022-12-06T12:15:18.517Z,100269.34
2022-12-06T12:18:16.807Z,100285.00
2022-12-06T12:21:07.544Z,100270.38
2022-12-06T12:23:58.327Z,100278.19
2022-12-06T12:26:47.031Z,100266.13
2022-12-06T12:29:35.794Z,100262.88
2022-12-06T12:32:24.531Z,100262.09
2022-12-06T12:35:28.311Z,100268.13
2022-12-06T12:38:25.114Z,100262.00
2022-12-06T12:41:34.652Z,100265.44
2022-12-06T12:44:37.584Z,100258.53
2022-12-06T12:47:27.564Z,100267.91
2022-12-06T12:50:20.840Z,100267.03
2022-12-06T12:53:31.396Z,100264.34
2022-12-06T12:56:22.465Z,100262.34
2022-12-06T12:59:18.079Z,100275.84
2022-12-06T13:02:21.658Z,100273.97
2022-12-06T13:05:32.529Z,100274.63
2022-12-06T13:08:27.206Z,100268.59
2022-12-06T13:11:16.037Z,100263.47
2022-12-06T13:14:05.268Z,100259.25
2022-12-06T13:16:59.408Z,100267.94
2022-12-06T13:19:53.385Z,100255.19
2022-12-06T13:22:45.371Z,100252.97
2022-12-06T13:25:34.143Z,100258.31
2022-12-06T13:28:29.496Z,100249.06
2022-12-06T13:31:25.297Z,100257.72
2022-12-06T13:34:22.795Z,100251.81
2022-12-06T13:37:35.308Z,100247.59
2022-12-06T13:40:47.789Z,100253.63
2022-12-06T13:43:57.732Z,100252.59
2022-12-06T13:46:46.473Z,100251.63
2022-12-06T13:49:51.350Z,100243.81
2022-12-06T13:53:02.071Z,100242.81
2022-12-06T13:56:02.060Z,100249.59
2022-12-06T13:58:55.472Z,100245.28
2022-12-06T14:01:46.266Z,100249.59
2022-12-06T14:04:37.935Z,100254.75
2022-12-06T14:07:34.742Z,100253.19
2022-12-06T14:10:23.449Z,100263.44
2022-12-06T14:13:18.967Z,100264.47
2022-12-06T14:16:09.649Z,100262.66
2022-12-06T14:18:58.480Z,100264.47
2022-12-06T14:21:55.713Z,100260.31
2022-12-06T14:25:00.358Z,100256.19
2022-12-06T14:27:52.550Z,100255.41
2022-12-06T14:30:42.086Z,100257.19
2022-12-06T14:33:30.847Z,100250.38
2022-12-06T14:36:25.773Z,100246.22
2022-12-06T14:39:20.538Z,100246.22
2022-12-06T14:42:37.702Z,100242.88
2022-12-06T14:45:26.535Z,100246.16
2022-12-06T14:48:16.390Z,100241.09
2022-12-06T14:51:04.539Z,100236.84
2022-12-06T14:53:53.837Z,100240.31
2022-12-06T14:56:45.671Z,100241.22
2022-12-06T15:00:13.456Z,100234.41
2022-12-06T15:03:25.828Z,100239.41
2022-12-06T15:06:20.597Z,100239.41
2022-12-06T15:09:15.363Z,100238.63
2022-12-06T15:12:39.648Z,100231.72
2022-12-06T15:15:39.512Z,100232.50
2022-12-06T15:18:32.945Z,100242.88
2022-12-06T15:21:22.320Z,100240.19
2022-12-06T15:24:20.125Z,100242.88
2022-12-06T15:27:08.746Z,100240.19
2022-12-06T15:29:57.514Z,100237.63
2022-12-06T15:32:47.636Z,100242.00
2022-12-06T15:35:36.253Z,100244.66
2022-12-06T15:41:29.527Z,100236.84
2022-12-06T15:44:20.437Z,100236.84
2022-12-06T15:47:11.445Z,100240.44
2022-12-06T15:50:03.658Z,100238.63
2022-12-06T15:52:52.343Z,100243.78
2022-12-06T15:55:50.921Z,100246.34
2022-12-06T15:58:39.820Z,100242.00
2022-12-06T16:01:34.506Z,100236.97
2022-12-06T16:04:30.105Z,100236.06
2022-12-06T16:07:23.197Z,100232.72
2022-12-06T16:10:12.108Z,100235.19
2022-12-06T16:13:18.535Z,100239.53
2022-12-06T16:16:08.255Z,100236.97
2022-12-06T16:18:57.054Z,100244.78
2022-12-06T16:21:57.549Z,100243.13
2022-12-06T16:24:52.323Z,100238.75
2022-12-06T16:27:42.627Z,100246.47
2022-12-06T16:30:35.970Z,100243.00
2022-12-06T16:37:06.430Z,100235.97
2022-12-06T16:39:56.859Z,100234.28
2022-12-06T16:42:46.390Z,100234.28
2022-12-06T16:45:38.686Z,100230.16
2022-12-06T16:48:27.522Z,100225.81
2022-12-06T16:51:16.531Z,100224.91
2022-12-06T16:54:05.650Z,100214.66
2022-12-06T16:56:56.130Z,100218.09
2022-12-06T16:59:44.826Z,100222.34
2022-12-06T17:02:36.610Z,100204.25
2022-12-06T17:05:28.270Z,100200.81
2022-12-06T17:08:22.097Z,100201.63
2022-12-06T17:11:35.446Z,100195.59
2022-12-06T17:14:27.151Z,100192.00
2022-12-06T17:17:18.238Z,100202.28
2022-12-06T17:20:09.676Z,100202.28
2022-12-06T17:22:58.452Z,100197.16
2022-12-06T17:25:47.221Z,100209.19
2022-12-06T17:28:35.906Z,100204.72
2022-12-06T17:31:26.331Z,100207.41
2022-12-06T17:34:16.432Z,100196.25
2022-12-06T17:37:06.171Z,100196.38
2022-12-06T17:39:54.922Z,100193.81
2022-12-06T17:43:02.219Z,100202.28
2022-12-06T17:45:50.910Z,100202.16
2022-12-06T17:48:44.595Z,100205.63
2022-12-06T17:51:34.106Z,100203.06
2022-12-06T17:54:23.286Z,100202.28
2022-12-06T17:57:16.232Z,100204.06
2022-12-06T18:00:07.669Z,100195.47
2022-12-06T18:02:56.601Z,100198.94
2022-12-06T18:05:50.794Z,100199.06
2022-12-06T18:08:40.063Z,100200.72
2022-12-06T18:11:30.275Z,100190.47
2022-12-06T18:14:19.034Z,100200.72
2022-12-06T18:17:07.781Z,100197.38
2022-12-06T18:19:56.529Z,100190.47
2022-12-06T18:22:46.507Z,100190.47
2022-12-06T18:25:38.677Z,100185.31
2022-12-06T18:28:27.336Z,100185.31
2022-12-06T18:31:16.483Z,100183.66
2022-12-06T18:34:05.218Z,100187.97
2022-12-06T18:36:56.305Z,100191.44
2022-12-06T18:39:46.379Z,100185.50
2022-12-06T18:42:35.624Z,100183.84
2022-12-06T18:45:24.246Z,100171.00
2022-12-06T18:48:13.315Z,100185.50
2022-12-06T18:51:06.372Z,100177.03
2022-12-06T18:53:58.091Z,100181.38
2022-12-06T18:56:48.159Z,100182.16
2022-12-06T18:59:38.192Z,100174.47
2022-12-06T19:02:26.961Z,100185.75
2022-12-06T19:05:27.695Z,100184.84
2022-12-06T19:08:24.716Z,100191.84
2022-12-06T19:11:18.656Z,100190.06
2022-12-06T19:14:09.733Z,100187.50
2022-12-06T19:16:58.570Z,100180.59
2022-12-06T19:19:47.269Z,100182.34
2022-12-06T19:22:35.978Z,100182.34
2022-12-06T19:25:25.163Z,100182.34
2022-12-06T19:28:13.862Z,100174.66
2022-12-06T19:31:06.345Z,100174.66
2022-12-06T19:33:55.052Z,100175.47
2022-12-06T19:36:44.386Z,100172.09
2022-12-06T19:39:33.869Z,100173.00
2022-12-06T19:42:40.153Z,100177.34
2022-12-06T19:45:28.774Z,100164.41
2022-12-06T19:48:19.470Z,100169.75
2022-12-06T19:51:08.755Z,100171.31
2022-12-06T19:54:00.635Z,100172.22
2022-12-06T19:56:53.092Z,100165.41
2022-12-06T19:59:41.833Z,100158.47
2022-12-06T20:02:30.501Z,100163.59
2022-12-06T20:05:20.678Z,100166.28
2022-12-06T20:08:18.459Z,100152.69
2022-12-06T20:11:30.949Z,100154.47
2022-12-06T20:14:19.924Z,100155.25
2022-12-06T20:17:12.217Z,100148.44
2022-12-06T20:20:02.095Z,100159.47
2022-12-06T20:22:52.504Z,100150.09
2022-12-06T20:25:42.001Z,100151.78
2022-12-06T20:28:30.714Z,100158.59
2022-12-06T20:31:21.986Z,100162.06
2022-12-06T20:34:15.366Z,100156.91
2022-12-06T20:37:06.754Z,100151.78
2022-12-06T20:39:56.798Z,100147.44
2022-12-06T20:42:47.068Z,100141.28
2022-12-06T20:45:36.330Z,100146.41
2022-12-06T20:48:25.296Z,100151.56
2022-12-06T20:51:16.829Z,100153.34
2022-12-06T20:54:08.290Z,100151.78
2022-12-06T20:56:58.445Z,100144.84
2022-12-06T20:59:47.120Z,100144.84
2022-12-06T21:02:36.049Z,100141.50
2022-12-06T21:05:25.163Z,100144.19
2022-12-06T21:08:13.940Z,100139.13
2022-12-06T21:14:16.320Z,100139.38
2022-12-06T21:17:05.336Z,100132.44
2022-12-06T21:19:54.428Z,100119.59
2022-12-06T21:22:43.087Z,100125.63
2022-12-06T21:25:31.748Z,100119.59
2022-12-06T21:28:20.484Z,100125.63
2022-12-06T21:31:11.389Z,100125.63
2022-12-06T21:34:00.190Z,100130.75
2022-12-06T21:36:49.002Z,100133.34
2022-12-06T21:39:37.718Z,100138.59
2022-12-06T21:42:26.706Z,100134.34
2022-12-06T21:45:15.601Z,100126.53
2022-12-06T21:48:07.807Z,100109.44
2022-12-06T21:51:02.898Z,100127.53
2022-12-06T21:53:51.794Z,100124.97
2022-12-06T21:56:41.008Z,100119.84
2022-12-06T21:59:29.873Z,100133.53
2022-12-06T22:02:18.802Z,100120.69
2022-12-06T22:05:10.256Z,100126.72
2022-12-06T22:07:59.449Z,100122.41
2022-12-06T22:10:52.445Z,100124.97
2022-12-06T22:13:41.507Z,100124.06
2022-12-06T22:16:30.500Z,100116.44
2022-12-06T22:19:19.433Z,100123.38
2022-12-06T22:22:09.914Z,100116.56
2022-12-06T22:24:58.995Z,100110.41
2022-12-06T22:27:47.937Z,100119.00
2022-12-06T22:30:36.666Z,100125.16
2022-12-06T22:33:25.323Z,100120.91
2022-12-06T22:36:15.877Z,100127.84
2022-12-06T22:39:07.114Z,100122.69
2022-12-06T22:41:55.846Z,100129.50
2022-12-06T22:44:44.532Z,100131.28
2022-12-06T22:47:33.211Z,100120.00
2022-12-06T22:50:21.876Z,100127.59
2022-12-06T22:53:10.522Z,100119.00
2022-12-06T22:56:02.606Z,100118.22
2022-12-06T22:58:53.637Z,100111.31
2022-12-06T23:01:42.389Z,100118.03
2022-12-06T23:04:31.546Z,100117.16
2022-12-06T23:07:20.228Z,100108.56
2022-12-06T23:10:10.359Z,100114.69
2022-12-06T23:13:00.325Z,100112.13
2022-12-06T23:15:57.018Z,100105.41
2022-12-06T23:18:47.163Z,100104.41
2022-12-06T23:21:37.236Z,100098.59
2022-12-06T23:24:26.203Z,100101.94
2022-12-06T23:27:14.843Z,100095.91
2022-12-06T23:30:05.606Z,100105.41
2022-12-06T23:32:54.516Z,100108.19
2022-12-06T23:35:43.167Z,100109.75
2022-12-06T23:38:32.302Z,100102.81
2022-12-06T23:41:23.339Z,100102.03
2022-12-06T23:44:13.969Z,100095.34
2022-12-06T23:47:04.051Z,100100.56
2022-12-06T23:49:53.232Z,100095.41
2022-12-06T23:52:41.898Z,100086.81
2022-12-06T23:55:30.528Z,100086.03
2022-12-06T23:58:19.154Z,100098.09
